Main page
METAR-TAF:

METAR-TAF

Airports :

Islay Airport

Islay, Scotland

latitude: 55-40-55N, longitude: 006-15-24W, elevation: 16 m

Current weather observation

The report was made 30 minutes ago, at 07:20 UTC
Wind 18 kt from the South/Southwest, varying between South and Southwest
Temperature 13°C
Humidity 94%
Pressure 990 hPa
Visibility 10 km or more
light rain

METAR: EGPI 180720Z AUTO 21018KT 170V230 9999 -RA BKN017/// 13/12 Q0990

Time: 08:50 (07:50 UTC)

Forecast

The report was made 2 hours and 50 minutes ago, at 05:00 UTC
Forecast valid from 18 at 06 UTC to 18 at 15 UTC
Wind 17 kt from the South/Southwest
Visibility 10 km or more
Scattered clouds at a height of 3000 ft
Temporary
from 18 at 06 UTC to 18 at 15 UTC
Wind 20 kt from the South/Southwest with gusts up to 30 kt
Probability 40% :
Temporary
from 18 at 06 UTC to 18 at 15 UTC
Visibility: 6000 m
rain showers

TAF: EGPI 180500Z 1806/1815 20017KT 9999 SCT030 TEMPO 1806/1815 21020G30KT PROB40 TEMPO 1806/1815 6000 SHRA

Weather observations and forecasts of more than 4000 airports (METAR and TAF reports).

The available stations are represented by yellow and red dots on the map.

Hover mouse over dot to see the name of the station.

Then click to see weather observations and forecasts.

To change the map : click on the green buttons with a black cross to zoom in, on the green button with a dash to zoom out, or on the green arrows for adjacent maps.


METAR-TAF: